Time;durP1;ratioP1;P1;durP2;ratioP2;P2;SDS_P1;SDS_P2;PMS_P1;PMS_P2;Temp;Humidity;BMP_temperature;BMP_pressure;BME280_temperature;BME280_humidity;BME280_pressure;Samples;Min_cycle;Max_cycle;Signal;HPM_P1;HPM_P2
2022/04/24 00:01:30;;;;;;;17.67;14.83;;;;;;;;;;5016519;28;20452;-92
2022/04/24 00:03:57;;;;;;;21.73;15.63;;;;;;;;;;5017397;28;20479;-95
2022/04/24 00:06:25;;;;;;;19.63;15.20;;;9.10;99.90;;;;;;5013730;28;20444;-91
2022/04/24 00:08:52;;;;;;;21.80;14.80;;;;;;;;;;5026225;28;20447;-96
2022/04/24 00:11:20;;;;;;;20.57;16.43;;;;;;;;;;5018772;28;20429;-94
2022/04/24 00:13:47;;;;;;;19.83;16.47;;;;;;;;;;5017299;28;20530;-93
2022/04/24 00:16:14;;;;;;;18.97;16.80;;;;;;;;;;5018497;28;20452;-92
2022/04/24 00:18:42;;;;;;;21.67;16.13;;;;;;;;;;5017559;28;20789;-92
2022/04/24 00:21:09;;;;;;;24.27;16.00;;;;;;;;;;5016659;28;20519;-93
2022/04/24 00:23:37;;;;;;;20.20;15.83;;;9.10;99.90;;;;;;5018406;28;20468;-92
2022/04/24 00:26:04;;;;;;;18.20;15.00;;;;;;;;;;5017230;28;20451;-91
2022/04/24 00:28:31;;;;;;;18.60;15.60;;;;;;;;;;5017159;28;20448;-95
2022/04/24 00:30:59;;;;;;;22.97;16.30;;;;;;;;;;5014166;28;20475;-92
2022/04/24 00:33:26;;;;;;;19.80;15.27;;;;;;;;;;5014134;28;20449;-94
2022/04/24 00:35:53;;;;;;;18.60;14.30;;;;;;;;;;5015121;28;20447;-95
2022/04/24 00:38:20;;;;;;;19.33;15.50;;;;;;;;;;5015916;28;20464;-92
2022/04/24 00:40:49;;;;;;;20.67;16.73;;;;;;;;;;5014815;28;20445;-94
2022/04/24 00:43:16;;;;;;;26.37;15.10;;;;;;;;;;5018703;28;20448;-93
2022/04/24 00:45:43;;;;;;;18.50;16.47;;;;;;;;;;5018100;28;20452;-94
2022/04/24 00:48:11;;;;;;;19.97;14.90;;;;;;;;;;5018418;28;20448;-95
2022/04/24 00:50:40;;;;;;;17.73;14.60;;;;;;;;;;5018395;28;20458;-95
2022/04/24 00:53:07;;;;;;;19.80;15.83;;;9.20;99.90;;;;;;5014555;28;20476;-94
2022/04/24 00:55:34;;;;;;;18.37;14.80;;;;;;;;;;5015748;28;20491;-94
2022/04/24 00:58:03;;;;;;;19.60;15.77;;;9.30;99.90;;;;;;5020782;28;20453;-95
2022/04/24 01:00:30;;;;;;;18.23;15.63;;;;;;;;;;4969979;28;20453;-93
2022/04/24 01:02:59;;;;;;;19.63;15.03;;;;;;;;;;5020744;28;20444;-95
2022/04/24 01:05:26;;;;;;;19.63;15.30;;;;;;;;;;5016809;28;20452;-96
2022/04/24 01:07:53;;;;;;;18.63;14.53;;;;;;;;;;5014579;28;20449;-94
2022/04/24 01:10:20;;;;;;;17.77;15.57;;;;;;;;;;5014608;28;20916;-95
2022/04/24 01:12:47;;;;;;;18.60;14.00;;;;;;;;;;5017452;28;20448;-93
2022/04/24 01:15:15;;;;;;;19.67;14.40;;;9.20;99.90;;;;;;5017213;28;20484;-95
2022/04/24 01:17:43;;;;;;;18.83;14.40;;;9.30;99.90;;;;;;5013655;28;20460;-94
2022/04/24 01:20:11;;;;;;;20.87;14.37;;;9.50;99.90;;;;;;5018181;28;20456;-94
2022/04/24 01:22:40;;;;;;;16.63;14.10;;;;;;;;;;5017648;28;20510;-95
2022/04/24 01:25:08;;;;;;;20.27;14.47;;;;;;;;;;5022478;28;20803;-95
2022/04/24 01:27:35;;;;;;;16.37;13.80;;;;;;;;;;5019413;28;20440;-94
2022/04/24 01:30:02;;;;;;;17.07;14.80;;;;;;;;;;5017392;28;20467;-94
2022/04/24 01:32:29;;;;;;;18.83;14.57;;;;;;;;;;5021865;28;20460;-95
2022/04/24 01:34:57;;;;;;;18.37;14.60;;;;;;;;;;5017242;28;20488;-93
2022/04/24 01:37:24;;;;;;;16.57;13.53;;;;;;;;;;5021566;28;20451;-93
2022/04/24 01:39:54;;;;;;;17.07;14.47;;;9.30;99.90;;;;;;5021398;28;20480;-95
2022/04/24 01:42:21;;;;;;;17.90;14.20;;;;;;;;;;5018137;28;20424;-93
2022/04/24 01:44:48;;;;;;;18.03;15.37;;;;;;;;;;5016999;28;20447;-95
2022/04/24 01:47:16;;;;;;;16.50;13.53;;;;;;;;;;5020664;28;20433;-94
2022/04/24 01:49:43;;;;;;;16.20;13.97;;;;;;;;;;5020240;28;20453;-95
2022/04/24 01:52:10;;;;;;;18.90;14.30;;;;;;;;;;5020118;28;20464;-94
2022/04/24 01:54:37;;;;;;;17.10;12.57;;;;;;;;;;5019339;28;20492;-94
2022/04/24 01:57:06;;;;;;;17.70;13.77;;;9.30;99.90;;;;;;5016373;28;20452;-94
2022/04/24 01:59:33;;;;;;;18.73;13.90;;;;;;;;;;5019812;28;20428;-95
2022/04/24 02:02:01;;;;;;;18.03;13.80;;;;;;;;;;5017591;28;20467;-94
2022/04/24 02:04:28;;;;;;;18.13;15.80;;;;;;;;;;5019596;28;20457;-95
2022/04/24 02:06:55;;;;;;;16.13;13.20;;;;;;;;;;5016741;28;20463;-95
2022/04/24 02:09:22;;;;;;;18.20;14.80;;;;;;;;;;5020370;28;20440;-94
2022/04/24 02:11:49;;;;;;;16.80;13.20;;;;;;;;;;5021087;28;20800;-94
2022/04/24 02:14:17;;;;;;;16.57;13.87;;;9.30;99.90;;;;;;5017400;28;20479;-95
2022/04/24 02:16:45;;;;;;;18.60;15.60;;;;;;;;;;5017802;28;20599;-94
2022/04/24 02:19:12;;;;;;;16.03;13.77;;;;;;;;;;5021157;28;20445;-94
2022/04/24 02:21:39;;;;;;;20.67;14.27;;;;;;;;;;5023365;28;20480;-95
2022/04/24 02:24:06;;;;;;;17.47;14.27;;;;;;;;;;5025877;28;20463;-94
2022/04/24 02:26:33;;;;;;;19.77;14.87;;;;;;;;;;5035714;28;20448;-93
2022/04/24 02:29:00;;;;;;;19.00;13.53;;;;;;;;;;5028421;28;20448;-95
2022/04/24 02:31:29;;;;;;;19.93;14.63;;;9.30;99.90;;;;;;5012902;28;20491;-94
2022/04/24 02:33:56;;;;;;;17.90;14.37;;;;;;;;;;5014894;28;20808;-93
2022/04/24 02:36:23;;;;;;;21.67;15.30;;;;;;;;;;5018343;28;20445;-92
2022/04/24 02:38:50;;;;;;;17.80;15.03;;;;;;;;;;5014935;28;20429;-94
2022/04/24 02:41:17;;;;;;;19.80;16.50;;;;;;;;;;5014991;28;20444;-94
2022/04/24 02:43:44;;;;;;;20.20;15.57;;;;;;;;;;5018027;28;20932;-94
2022/04/24 02:46:11;;;;;;;19.37;14.90;;;;;;;;;;5017853;28;20444;-92
2022/04/24 02:48:40;;;;;;;18.43;15.63;;;;;;;;;;5015643;28;20452;-94
2022/04/24 02:51:07;;;;;;;19.63;15.40;;;;;;;;;;5015960;28;20468;-96
2022/04/24 02:53:34;;;;;;;19.40;15.23;;;;;;;;;;5018268;28;20439;-93
2022/04/24 02:56:01;;;;;;;17.87;14.70;;;;;;;;;;5015247;28;20503;-93
2022/04/24 02:58:28;;;;;;;21.60;16.20;;;;;;;;;;5015980;28;20461;-92
2022/04/24 03:00:56;;;;;;;21.43;15.60;;;;;;;;;;5017906;28;20883;-93
2022/04/24 03:03:24;;;;;;;20.40;16.00;;;;;;;;;;5017510;28;20453;-92
2022/04/24 03:05:52;;;;;;;21.33;16.43;;;8.80;99.90;;;;;;5015059;28;20506;-94
2022/04/24 03:08:21;;;;;;;21.87;16.57;;;8.80;99.90;;;;;;5014163;28;20464;-93
2022/04/24 03:10:48;;;;;;;22.30;16.33;;;;;;;;;;5014999;28;20444;-94
2022/04/24 03:13:15;;;;;;;22.97;15.57;;;;;;;;;;5014436;28;20436;-93
2022/04/24 03:15:42;;;;;;;18.67;15.90;;;;;;;;;;5024066;28;20471;-94
2022/04/24 03:18:09;;;;;;;19.30;16.43;;;;;;;;;;5040561;28;20450;-93
2022/04/24 03:20:37;;;;;;;19.80;16.13;;;;;;;;;;5025331;28;20444;-93
2022/04/24 03:23:05;;;;;;;23.07;16.03;;;8.80;99.90;;;;;;4998287;28;20473;-94
2022/04/24 03:25:33;;;;;;;20.53;16.40;;;8.80;99.90;;;;;;4998825;28;20460;-93
2022/04/24 03:28:00;;;;;;;23.83;17.17;;;;;;;;;;4999213;28;20476;-96
2022/04/24 03:30:27;;;;;;;25.13;16.90;;;;;;;;;;4996219;28;20437;-92
2022/04/24 03:32:54;;;;;;;19.60;15.70;;;;;;;;;;4995449;28;20473;-92
2022/04/24 03:35:21;;;;;;;21.77;15.60;;;;;;;;;;4995469;28;20487;-95
2022/04/24 03:37:48;;;;;;;20.63;16.60;;;;;;;;;;4997208;28;20536;-94
2022/04/24 03:40:17;;;;;;;19.80;16.20;;;8.80;99.90;;;;;;4997974;28;20461;-94
2022/04/24 03:42:44;;;;;;;20.77;16.93;;;;;;;;;;4994150;28;20504;-93
2022/04/24 03:45:11;;;;;;;20.27;16.63;;;;;;;;;;4994218;28;20497;-94
2022/04/24 03:47:38;;;;;;;22.43;17.80;;;;;;;;;;4998403;28;20492;-94
2022/04/24 03:50:06;;;;;;;23.00;15.93;;;9.10;99.90;;;;;;4997426;28;20449;-94
2022/04/24 03:52:33;;;;;;;23.00;16.80;;;;;;;;;;4994946;28;20496;-93
2022/04/24 03:55:01;;;;;;;20.73;17.60;;;;;;;;;;4997913;28;20515;-94
2022/04/24 03:57:29;;;;;;;20.23;16.00;;;8.90;99.90;;;;;;4997775;28;20804;-94
2022/04/24 03:59:56;;;;;;;23.23;18.13;;;;;;;;;;4995434;28;20960;-93
2022/04/24 04:02:24;;;;;;;23.80;18.80;;;;;;;;;;4997161;28;20924;-92
2022/04/24 04:04:51;;;;;;;22.33;18.40;;;;;;;;;;4997267;28;20461;-94
2022/04/24 04:07:18;;;;;;;27.07;18.63;;;;;;;;;;4997431;28;20807;-92
2022/04/24 04:09:46;;;;;;;22.53;17.30;;;;;;;;;;4994391;28;20488;-93
2022/04/24 04:12:13;;;;;;;21.63;17.70;;;;;;;;;;4997485;28;20450;-94
2022/04/24 04:14:41;;;;;;;22.07;16.97;;;;;;;;;;4997305;28;20914;-93
2022/04/24 04:17:10;;;;;;;23.13;17.50;;;;;;;;;;4993975;28;20523;-94
2022/04/24 04:19:37;;;;;;;22.10;17.20;;;;;;;;;;4995546;28;20438;-93
2022/04/24 04:22:04;;;;;;;25.07;18.60;;;;;;;;;;5005046;28;20480;-94
2022/04/24 04:24:31;;;;;;;22.43;17.23;;;;;;;;;;5016326;28;20512;-96
2022/04/24 04:27:00;;;;;;;24.40;18.00;;;;;;;;;;5016628;28;20805;-92
2022/04/24 04:29:27;;;;;;;24.63;19.57;;;;;;;;;;5015007;28;20468;-94
2022/04/24 04:31:56;;;;;;;11.13;8.00;;;;;;;;;;5022237;28;20456;-94
2022/04/24 04:34:23;;;;;;;10.50;7.73;;;;;;;;;;5024202;28;20964;-90
2022/04/24 04:36:50;;;;;;;7.37;5.80;;;;;;;;;;5016766;23;20563;-90
2022/04/24 04:39:17;;;;;;;7.00;4.53;;;;;;;;;;5004020;28;20438;-91
2022/04/24 04:41:44;;;;;;;3.17;2.57;;;;;;;;;;4998121;28;20460;-90
2022/04/24 04:44:11;;;;;;;6.83;2.80;;;;;;;;;;4994316;28;20465;-91
2022/04/24 04:46:39;;;;;;;11.83;1.97;;;;;;;;;;4997578;28;20448;-94
2022/04/24 04:49:07;;;;;;;1.07;0.80;;;;;;;;;;4998809;28;20849;-92
2022/04/24 04:51:35;;;;;;;1.40;0.73;;;;;;;;;;5011734;28;20971;-93
2022/04/24 04:54:02;;;;;;;1.57;0.67;;;;;;;;;;5012922;28;20448;-92
2022/04/24 04:56:29;;;;;;;4.20;0.63;;;;;;;;;;5016878;28;20487;-91
2022/04/24 04:58:56;;;;;;;0.50;0.40;;;;;;;;;;5010391;28;20539;-92
2022/04/24 05:01:23;;;;;;;0.90;0.60;;;;;;;;;;5013699;28;20502;-95
2022/04/24 05:03:51;;;;;;;2.10;0.57;;;;;;;;;;5013390;28;20432;-91
2022/04/24 05:06:19;;;;;;;0.50;0.40;;;7.40;99.90;;;;;;5013683;28;20456;-92
2022/04/24 05:08:46;;;;;;;0.60;0.50;;;;;;;;;;5017115;28;20449;-93
2022/04/24 05:11:13;;;;;;;0.43;0.30;;;;;;;;;;5018250;28;20805;-94
2022/04/24 05:13:40;;;;;;;0.53;0.20;;;;;;;;;;5020304;28;20461;-91
2022/04/24 05:16:08;;;;;;;0.57;0.30;;;;;;;;;;5014248;28;20496;-93
2022/04/24 05:18:36;;;;;;;0.40;0.20;;;;;;;;;;5017885;28;21084;-92
2022/04/24 05:21:03;;;;;;;0.50;0.30;;;;;;;;;;5016513;28;20456;-93
2022/04/24 05:23:32;;;;;;;0.30;0.20;;;;;;;;;;5012977;28;20460;-92
2022/04/24 05:25:59;;;;;;;1.00;0.30;;;;;;;;;;5013209;28;20468;-93
2022/04/24 05:28:26;;;;;;;0.40;0.20;;;;;;;;;;5015238;28;20444;-91
2022/04/24 05:30:54;;;;;;;0.40;0.20;;;;;;;;;;5012493;28;20975;-91
2022/04/24 05:33:21;;;;;;;0.33;0.20;;;;;;;;;;5011506;28;20510;-89
2022/04/24 05:35:50;;;;;;;0.30;0.20;;;6.70;99.90;;;;;;5011880;28;20539;-92
2022/04/24 05:38:17;;;;;;;0.40;0.20;;;;;;;;;;5012461;28;20498;-92
2022/04/24 05:40:46;;;;;;;0.77;0.40;;;;;;;;;;5009872;28;20433;-91
2022/04/24 05:43:13;;;;;;;0.30;0.20;;;;;;;;;;5012854;28;20460;-92
2022/04/24 05:45:40;;;;;;;0.43;0.33;;;;;;;;;;5012282;28;20441;-91
2022/04/24 05:48:07;;;;;;;0.40;0.20;;;6.70;99.90;;;;;;5028956;28;20435;-91
2022/04/24 05:50:35;;;;;;;0.30;0.20;;;;;;;;;;5034354;28;20465;-93
2022/04/24 05:53:02;;;;;;;0.40;0.20;;;;;;;;;;5014938;28;20455;-91
2022/04/24 05:55:29;;;;;;;0.30;0.20;;;;;;;;;;5011868;28;20488;-89
2022/04/24 05:57:57;;;;;;;0.97;0.40;;;6.60;99.90;;;;;;5015489;28;20445;-90
2022/04/24 06:00:24;;;;;;;0.37;0.20;;;;;;;;;;5012548;28;20463;-90
2022/04/24 06:02:52;;;;;;;0.40;0.20;;;;;;;;;;5012412;28;20433;-89
2022/04/24 06:05:19;;;;;;;1.23;0.30;;;;;;;;;;5011542;28;20436;-90
2022/04/24 06:07:46;;;;;;;0.30;0.20;;;;;;;;;;5017272;28;20786;-90
2022/04/24 06:10:14;;;;;;;0.40;0.20;;;;;;;;;;5001393;28;20526;-91
2022/04/24 06:12:45;;;;;;;1.37;0.30;;;6.70;99.90;;;;;;5018138;28;20447;-90
2022/04/24 06:15:16;;;;;;;0.70;0.30;;;;;;;;;;5013254;28;20451;-93
2022/04/24 06:17:46;;;;;;;0.37;0.23;;;;;;;;;;5021608;28;21053;-94
2022/04/24 06:20:13;;;;;;;0.40;0.20;;;;;;;;;;5024330;28;20568;-92
2022/04/24 06:22:52;;;;;;;0.53;0.40;;;6.70;99.90;;;;;;5023998;28;20415;-93
2022/04/24 06:25:21;;;;;;;0.60;0.30;;;6.70;99.90;;;;;;5019967;28;20455;-93
2022/04/24 06:27:49;;;;;;;0.40;0.20;;;6.70;99.90;;;;;;5016925;28;20456;-93
2022/04/24 06:30:20;;;;;;;0.40;0.27;;;6.80;99.90;;;;;;5021033;28;20460;-93
2022/04/24 06:32:47;;;;;;;0.50;0.30;;;;;;;;;;5021595;28;20479;-93
2022/04/24 06:35:17;;;;;;;2.30;0.30;;;6.80;99.90;;;;;;5016689;28;20443;-91
2022/04/24 06:37:48;;;;;;;0.40;0.27;;;6.80;99.90;;;;;;5017507;28;20460;-93
2022/04/24 06:40:16;;;;;;;0.30;0.20;;;6.80;99.90;;;;;;5019033;28;20455;-93
2022/04/24 06:42:51;;;;;;;0.47;0.27;;;6.80;99.90;;;;;;5018296;28;20472;-92
2022/04/24 06:45:25;;;;;;;1.57;0.27;;;6.80;99.90;;;;;;5018116;28;20444;-91
2022/04/24 06:47:52;;;;;;;0.50;0.40;;;;;;;;;;5015386;28;20468;-94
2022/04/24 06:50:19;;;;;;;0.30;0.20;;;;;;;;;;5017736;28;20477;-91
2022/04/24 06:52:56;;;;;;;1.07;0.30;;;6.90;99.90;;;;;;5015586;28;20465;-91
2022/04/24 06:55:23;;;;;;;0.40;0.30;;;;;;;;;;5012478;28;20456;-89
2022/04/24 06:57:51;;;;;;;0.30;0.20;;;;;;;;;;5018562;28;20448;-91
2022/04/24 07:00:20;;;;;;;0.40;0.20;;;6.90;99.90;;;;;;5019633;28;21010;-91
2022/04/24 07:02:47;;;;;;;0.60;0.30;;;;;;;;;;5017150;28;20436;-90
2022/04/24 07:05:15;;;;;;;0.40;0.20;;;;;;;;;;5017472;28;20455;-92
2022/04/24 07:07:42;;;;;;;0.50;0.30;;;;;;;;;;5015759;28;20420;-93
2022/04/24 07:10:10;;;;;;;0.90;0.57;;;7.00;99.90;;;;;;5017968;28;20528;-93
2022/04/24 07:12:45;;;;;;;0.40;0.30;;;;;;;;;;5018344;28;20444;-93
2022/04/24 07:15:13;;;;;;;0.40;0.20;;;;;;;;;;5017929;28;20993;-92
2022/04/24 07:17:44;;;;;;;0.50;0.37;;;;;;;;;;5017662;28;20523;-92
2022/04/24 07:20:12;;;;;;;0.30;0.20;;;7.00;99.90;;;;;;5016452;28;20963;-94
2022/04/24 07:22:49;;;;;;;0.40;0.20;;;7.00;99.90;;;;;;5019765;28;20452;-94
2022/04/24 07:25:18;;;;;;;2.10;1.33;;;7.00;99.90;;;;;;5015920;28;20463;-93
2022/04/24 07:27:48;;;;;;;1.17;0.60;;;;;;;;;;5017920;28;20793;-94
2022/04/24 07:30:15;;;;;;;4.50;1.10;;;7.00;99.90;;;;;;5017791;28;20452;-91
2022/04/24 07:32:46;;;;;;;2.50;1.80;;;7.00;99.90;;;;;;5011909;28;20440;-94
2022/04/24 07:35:14;;;;;;;1.13;0.90;;;7.00;99.90;;;;;;5013867;28;20448;-92
2022/04/24 07:37:42;;;;;;;0.90;0.90;;;;;;;;;;5011705;28;20499;-92
2022/04/24 07:40:12;;;;;;;0.70;0.50;;;7.30;99.90;;;;;;5018445;28;20437;-92
2022/04/24 07:42:47;;;;;;;0.73;0.40;;;7.10;99.90;;;;;;5014405;28;20544;-93
2022/04/24 07:45:18;;;;;;;0.40;0.20;;;7.10;99.90;;;;;;5018823;28;20443;-91
2022/04/24 07:47:49;;;;;;;4.10;0.50;;;7.10;99.90;;;;;;5016843;28;20460;-90
2022/04/24 07:50:17;;;;;;;1.17;0.60;;;7.20;99.90;;;;;;5010882;28;21062;-90
2022/04/24 07:52:44;;;;;;;1.37;0.70;;;;;;;;;;5016130;28;20449;-91
2022/04/24 07:55:12;;;;;;;0.80;0.30;;;7.30;99.90;;;;;;5015795;28;20463;-91
2022/04/24 07:57:40;;;;;;;1.70;1.60;;;7.30;99.90;;;;;;5015798;28;20507;-90
2022/04/24 08:00:09;;;;;;;0.40;0.30;;;7.20;99.90;;;;;;5015745;28;20448;-92
2022/04/24 08:02:48;;;;;;;0.50;0.30;;;7.20;99.90;;;;;;5008632;28;20457;-94
2022/04/24 08:05:22;;;;;;;0.70;0.60;;;7.30;99.90;;;;;;5010987;28;20452;-91
2022/04/24 08:07:50;;;;;;;0.40;0.37;;;;;;;;;;5015506;28;20799;-90
2022/04/24 08:10:17;;;;;;;2.17;1.77;;;;;;;;;;5015594;28;20456;-89
2022/04/24 08:12:44;;;;;;;1.20;1.07;;;;;;;;;;5015369;28;20451;-89
2022/04/24 08:15:11;;;;;;;3.10;2.43;;;7.30;99.90;;;;;;5011316;28;20452;-89
2022/04/24 08:17:38;;;;;;;4.00;3.70;;;;;;;;;;5012319;28;20483;-89
2022/04/24 08:20:09;;;;;;;2.70;2.50;;;7.20;99.90;;;;;;5013610;28;20522;-90
2022/04/24 08:22:38;;;;;;;2.17;2.03;;;7.40;99.90;;;;;;5039336;28;20433;-92
2022/04/24 08:25:06;;;;;;;1.40;0.60;;;7.40;99.90;;;;;;5023543;28;20468;-88
2022/04/24 08:27:33;;;;;;;0.80;0.60;;;;;;;;;;5012071;28;20511;-89
2022/04/24 08:30:00;;;;;;;2.93;0.50;;;;;;;;;;5015484;28;20455;-91
2022/04/24 08:32:27;;;;;;;0.60;0.50;;;;;;;;;;5016652;28;20453;-92
2022/04/24 08:35:01;;;;;;;2.83;0.80;;;;;;;;;;5022602;28;20447;-93
2022/04/24 08:40:44;;;;;;;1.43;1.33;;;;;;;;;;5002280;28;20472;-91
2022/04/24 08:43:11;;;;;;;1.37;0.90;;;;;;;;;;4999932;28;20464;-90
2022/04/24 08:45:41;;;;;;;0.57;0.40;;;7.60;99.90;;;;;;5001645;28;20457;-93
2022/04/24 08:48:09;;;;;;;0.80;0.80;;;;;;;;;;5000694;28;20817;-91
2022/04/24 08:50:38;;;;;;;1.50;0.40;;;7.60;99.90;;;;;;4998090;28;20524;-91
2022/04/24 08:53:07;;;;;;;1.57;0.40;;;7.50;99.90;;;;;;4997074;28;20429;-92
2022/04/24 08:55:34;;;;;;;2.00;0.70;;;;;;;;;;4995987;28;20460;-92
2022/04/24 08:58:02;;;;;;;2.87;0.53;;;7.70;99.90;;;;;;4999243;28;20583;-95
2022/04/24 09:00:30;;;;;;;1.10;0.80;;;;;;;;;;4997175;28;20458;-93
2022/04/24 09:02:58;;;;;;;0.50;0.50;;;;;;;;;;4997653;28;20496;-91
2022/04/24 09:05:26;;;;;;;2.73;0.77;;;;;;;;;;4997713;28;20457;-93
2022/04/24 09:07:55;;;;;;;2.10;0.50;;;;;;;;;;4999225;28;20816;-93
2022/04/24 09:10:22;;;;;;;1.03;0.57;;;;;;;;;;4999155;28;20933;-91
2022/04/24 09:12:54;;;;;;;0.63;0.53;;;7.80;99.90;;;;;;4994935;28;20453;-92
2022/04/24 09:15:23;;;;;;;1.47;1.10;;;;;;;;;;5020710;23;20488;-93
2022/04/24 09:18:00;;;;;;;2.97;2.10;;;7.80;99.90;;;;;;5012013;28;20492;-94
2022/04/24 09:20:28;;;;;;;1.17;1.07;;;;;;;;;;5010841;28;20432;-90
2022/04/24 09:23:03;;;;;;;1.70;1.33;;;8.00;99.90;;;;;;5013367;28;20471;-93
2022/04/24 09:25:38;;;;;;;3.60;3.27;;;7.90;99.90;;;;;;5012766;28;20467;-93
2022/04/24 09:28:06;;;;;;;2.50;2.10;;;8.00;99.90;;;;;;5015374;28;20459;-94
2022/04/24 09:30:36;;;;;;;1.33;1.10;;;8.00;99.90;;;;;;5015294;28;20460;-93
2022/04/24 09:33:03;;;;;;;42.30;29.87;;;;;;;;;;5014853;28;20484;-91
2022/04/24 09:35:30;;;;;;;1.40;0.70;;;;;;;;;;5014792;28;20457;-92
2022/04/24 09:38:09;;;;;;;1.80;1.57;;;7.90;99.90;;;;;;5025158;28;20499;-93
2022/04/24 09:40:40;;;;;;;2.40;2.20;;;8.40;99.90;;;;;;5019823;28;20433;-93
2022/04/24 09:43:09;;;;;;;2.63;1.90;;;8.10;99.90;;;;;;5015745;28;20476;-92
2022/04/24 09:45:38;;;;;;;2.40;0.80;;;8.10;99.90;;;;;;5018122;28;20447;-91
2022/04/24 09:48:12;;;;;;;1.30;1.20;;;8.10;99.90;;;;;;5018064;28;20456;-93
2022/04/24 09:50:40;;;;;;;2.27;0.83;;;8.10;99.90;;;;;;5033962;28;20447;-94
2022/04/24 09:53:07;;;;;;;2.43;0.40;;;;;;;;;;5037888;28;20451;-91
2022/04/24 09:55:38;;;;;;;1.30;1.20;;;8.00;99.90;;;;;;5038743;28;20447;-92
2022/04/24 09:58:06;;;;;;;2.10;1.20;;;;;;;;;;5036485;28;20520;-89
2022/04/24 10:00:34;;;;;;;0.70;0.60;;;8.10;99.90;;;;;;5035454;28;20515;-91
2022/04/24 10:03:03;;;;;;;0.60;0.60;;;8.10;99.90;;;;;;5034997;28;20448;-91
2022/04/24 10:05:30;;;;;;;2.37;0.70;;;8.10;99.90;;;;;;5039542;28;20452;-91
2022/04/24 10:07:58;;;;;;;2.90;0.87;;;;;;;;;;5038417;28;20439;-93
2022/04/24 10:10:25;;;;;;;1.13;0.80;;;;;;;;;;5038184;28;20446;-90
2022/04/24 10:12:53;;;;;;;1.03;0.90;;;8.50;99.90;;;;;;5035104;28;20460;-89
2022/04/24 10:15:22;;;;;;;2.40;1.03;;;8.20;99.90;;;;;;5038029;28;20525;-92
2022/04/24 10:18:32;;;;;;;1.20;1.10;;;8.40;99.90;;;;;;5038070;28;20486;-92
2022/04/24 10:21:23;;;;;;;2.13;1.30;;;8.30;99.90;;;;;;5034725;28;20450;-92
2022/04/24 10:23:51;;;;;;;1.13;0.93;;;;;;;;;;5037663;28;20455;-90
2022/04/24 10:26:18;;;;;;;2.30;1.47;;;8.40;99.90;;;;;;5037900;28;20865;-92
2022/04/24 10:28:47;;;;;;;2.70;0.97;;;;;;;;;;5038425;28;20444;-92
2022/04/24 10:31:14;;;;;;;1.30;1.20;;;;;;;;;;5038039;28;20451;-90
2022/04/24 10:33:54;;;;;;;2.13;1.10;;;8.40;99.90;;;;;;5037720;28;20719;-91
2022/04/24 10:36:23;;;;;;;2.07;0.97;;;;;;;;;;5033783;28;20434;-92
2022/04/24 10:38:51;;;;;;;1.23;0.90;;;8.40;99.90;;;;;;5038338;28;20479;-91
2022/04/24 10:41:19;;;;;;;1.50;0.80;;;8.40;99.90;;;;;;5037272;28;20907;-92
2022/04/24 10:43:48;;;;;;;1.13;0.60;;;8.50;99.90;;;;;;5033043;28;20455;-92
2022/04/24 10:46:20;;;;;;;1.17;0.80;;;8.00;99.90;;;;;;5033704;28;20801;-91
2022/04/24 10:48:49;;;;;;;0.80;0.80;;;8.50;99.90;;;;;;5032723;28;20475;-90
2022/04/24 10:51:27;;;;;;;0.60;0.60;;;8.40;99.90;;;;;;5031392;28;20803;-91
2022/04/24 10:53:58;;;;;;;2.57;0.50;;;8.60;99.90;;;;;;5035671;28;21009;-91
2022/04/24 10:56:26;;;;;;;2.43;2.23;;;;;;;;;;5037790;28;20501;-92
2022/04/24 10:58:53;;;;;;;4.67;3.20;;;;;;;;;;5033429;28;20479;-92
2022/04/24 11:01:20;;;;;;;5.20;3.90;;;;;;;;;;5033533;28;20432;-92
2022/04/24 11:03:48;;;;;;;3.77;1.43;;;8.60;99.90;;;;;;5031864;28;20443;-93
2022/04/24 11:06:20;;;;;;;2.83;1.90;;;8.90;99.90;;;;;;5032160;28;20923;-91
2022/04/24 11:08:47;;;;;;;1.17;1.07;;;;;;;;;;5036043;28;20947;-90
2022/04/24 11:11:14;;;;;;;2.13;1.90;;;;;;;;;;5033072;28;20440;-93
2022/04/24 11:13:42;;;;;;;1.23;1.13;;;;;;;;;;5036330;28;20891;-92
2022/04/24 11:16:09;;;;;;;0.80;0.77;;;8.70;99.90;;;;;;5036550;28;20431;-93
2022/04/24 11:18:37;;;;;;;1.40;0.80;;;;;;;;;;5032149;28;20491;-92
2022/04/24 11:21:08;;;;;;;0.97;0.40;;;8.50;99.90;;;;;;5033258;28;20436;-92
2022/04/24 11:23:36;;;;;;;0.77;0.70;;;8.60;99.90;;;;;;5033278;28;20930;-94
2022/04/24 11:26:06;;;;;;;2.47;2.20;;;8.70;99.90;;;;;;5036410;28;20482;-94
2022/04/24 11:28:38;;;;;;;2.17;2.00;;;8.80;99.90;;;;;;5030990;28;20462;-90
2022/04/24 11:31:10;;;;;;;1.27;1.17;;;9.00;99.90;;;;;;5033161;28;20428;-95
2022/04/24 11:33:39;;;;;;;1.30;0.40;;;8.70;99.90;;;;;;5035067;28;20438;-92
2022/04/24 11:36:07;;;;;;;1.87;1.43;;;8.60;99.90;;;;;;5035660;28;20443;-94
2022/04/24 11:38:34;;;;;;;1.13;0.67;;;;;;;;;;5035882;28;20488;-91
2022/04/24 11:41:03;;;;;;;2.00;0.77;;;;;;;;;;5035317;28;20431;-92
2022/04/24 11:43:33;;;;;;;0.70;0.60;;;9.00;99.90;;;;;;5036383;28;20444;-91
2022/04/24 11:51:33;;;;;;;1.70;0.90;;;9.00;99.90;;;;;;5036433;28;20434;-93
2022/04/24 11:54:00;;;;;;;1.00;0.70;;;;;;;;;;5030312;28;20455;-93
2022/04/24 11:56:32;;;;;;;4.73;0.63;;;9.00;99.90;;;;;;5037025;28;20436;-94
2022/04/24 11:59:13;;;;;;;0.50;0.40;;;8.90;99.90;;;;;;5032031;28;20989;-95
2022/04/24 12:01:40;;;;;;;1.43;0.60;;;;;;;;;;5039689;28;20514;-93
2022/04/24 12:04:07;;;;;;;1.43;0.70;;;;;;;;;;5031934;28;20451;-92
2022/04/24 12:06:36;;;;;;;2.00;0.70;;;9.00;99.90;;;;;;5036392;28;20447;-92
2022/04/24 12:09:08;;;;;;;1.00;0.80;;;9.20;99.90;;;;;;5031423;28;20900;-91
2022/04/24 12:11:36;;;;;;;1.13;0.67;;;;;;;;;;5036878;28;20455;-93
2022/04/24 12:14:07;;;;;;;0.97;0.70;;;9.00;99.90;;;;;;5036117;28;20486;-93
2022/04/24 12:16:34;;;;;;;17.00;8.80;;;;;;;;;;5035950;28;20460;-93
2022/04/24 12:19:03;;;;;;;1.57;0.63;;;;;;;;;;5035305;28;20488;-94
2022/04/24 12:21:31;;;;;;;1.63;1.00;;;9.20;99.90;;;;;;5034817;28;20863;-90
2022/04/24 12:24:00;;;;;;;0.43;0.30;;;9.10;99.90;;;;;;5034355;28;20451;-89
2022/04/24 12:26:27;;;;;;;9.30;6.87;;;;;;;;;;5031338;28;20459;-90
2022/04/24 12:28:54;;;;;;;0.70;0.63;;;;;;;;;;5036959;28;20464;-92
2022/04/24 12:31:24;;;;;;;3.93;2.67;;;9.00;99.90;;;;;;5037677;28;21021;-91
2022/04/24 12:33:54;;;;;;;1.17;0.60;;;9.00;99.90;;;;;;5034021;28;20459;-92
2022/04/24 12:36:21;;;;;;;0.60;0.57;;;;;;;;;;5033381;28;20538;-93
2022/04/24 12:39:01;;;;;;;0.67;0.67;;;9.00;99.90;;;;;;5039659;28;20570;-90
2022/04/24 12:41:30;;;;;;;0.70;0.50;;;9.00;99.90;;;;;;5035691;28;20531;-92
2022/04/24 12:43:59;;;;;;;1.30;1.20;;;8.90;99.90;;;;;;5044848;23;20455;-94
2022/04/24 12:46:26;;;;;;;1.37;0.83;;;;;;;;;;5042458;28;20432;-93
2022/04/24 12:48:54;;;;;;;0.90;0.47;;;9.00;99.90;;;;;;5060498;28;20471;-91
2022/04/24 12:51:23;;;;;;;0.90;0.70;;;9.00;99.90;;;;;;5059830;28;20447;-94
2022/04/24 12:53:51;;;;;;;0.60;0.43;;;;;;;;;;5063394;28;20447;-95
2022/04/24 12:56:20;;;;;;;0.50;0.30;;;;;;;;;;5062992;28;20442;-90
2022/04/24 12:58:47;;;;;;;0.60;0.40;;;;;;;;;;5062319;28;20574;-93
2022/04/24 13:01:18;;;;;;;6.80;0.63;;;;;;;;;;5066996;28;20513;-93
2022/04/24 13:03:46;;;;;;;0.60;0.50;;;;;;;;;;5064670;28;20834;-93
2022/04/24 13:06:15;;;;;;;0.60;0.47;;;8.90;99.90;;;;;;5065115;28;20458;-94
2022/04/24 13:08:43;;;;;;;0.50;0.40;;;;;;;;;;5053629;28;20451;-92
2022/04/24 13:11:10;;;;;;;0.70;0.50;;;;;;;;;;5058442;28;20453;-93
2022/04/24 13:18:53;;;;;;;0.40;0.30;;;;;;;;;;5020001;28;20223;-95
2022/04/24 13:24:01;;;;;;;0.50;0.30;;;;;;;;;;5074473;22;21276;-93
2022/04/24 13:26:31;;;;;;;0.90;0.33;;;9.10;99.90;;;;;;5021146;28;20806;-92
2022/04/24 13:28:58;;;;;;;0.50;0.30;;;;;;;;;;5024522;28;20507;-93
2022/04/24 13:31:52;;;;;;;0.50;0.30;;;9.00;99.90;;;;;;5027923;28;21051;-93
2022/04/24 13:39:50;;;;;;;0.70;0.50;;;;;;;;;;5033986;28;20415;-93
2022/04/24 13:42:21;;;;;;;0.50;0.33;;;;;;;;;;5028585;28;20555;-95
2022/04/24 13:44:51;;;;;;;3.23;0.73;;;;;;;;;;5028800;28;20448;-94
2022/04/24 13:47:21;;;;;;;0.50;0.40;;;;;;;;;;5041061;23;20558;-91
2022/04/24 13:49:48;;;;;;;0.70;0.50;;;;;;;;;;5049552;28;20434;-93
2022/04/24 13:52:16;;;;;;;0.50;0.40;;;;;;;;;;5042913;23;20519;-95
2022/04/24 13:54:46;;;;;;;0.40;0.30;;;;;;;;;;5036137;22;20484;-92
2022/04/24 13:59:58;;;;;;;0.40;0.30;;;;;;;;;;5027681;28;20444;-93
2022/04/24 14:02:36;;;;;;;0.50;0.30;;;;;;;;;;5035347;22;20480;-93
2022/04/24 14:05:04;;;;;;;0.43;0.30;;;;;;;;;;5024796;28;20444;-92
2022/04/24 14:07:43;;;;;;;0.87;0.40;;;;;;;;;;5030390;28;20490;-94
2022/04/24 14:10:26;;;;;;;0.80;0.50;;;9.10;99.90;;;;;;5022567;28;20510;-92
2022/04/24 14:12:55;;;;;;;1.60;0.57;;;;;;;;;;5038511;22;20437;-94
2022/04/24 14:15:28;;;;;;;0.60;0.43;;;;;;;;;;5008934;28;20471;-94
2022/04/24 14:18:25;;;;;;;0.87;0.50;;;9.20;99.90;;;;;;5013441;28;20485;-93
2022/04/24 14:21:16;;;;;;;1.67;0.50;;;9.00;99.90;;;;;;5045526;22;20472;-95
2022/04/24 14:23:43;;;;;;;1.07;0.97;;;;;;;;;;5030722;28;20563;-89
2022/04/24 14:26:10;;;;;;;1.87;1.10;;;;;;;;;;5038309;28;20466;-94
2022/04/24 14:28:47;;;;;;;1.20;0.73;;;;;;;;;;5044856;28;20907;-92